createdAt,value
2017-06-10T00:01:29.864Z,14.60
2017-06-10T00:03:58.651Z,14.20
2017-06-10T00:06:27.564Z,14.20
2017-06-10T00:08:56.355Z,14.20
2017-06-10T00:11:25.135Z,14.30
2017-06-10T00:13:53.947Z,14.30
2017-06-10T00:16:22.748Z,14.30
2017-06-10T00:18:51.535Z,14.10
2017-06-10T00:21:20.319Z,14.00
2017-06-10T00:23:49.104Z,14.00
2017-06-10T00:26:17.884Z,14.10
2017-06-10T00:28:46.683Z,14.20
2017-06-10T00:31:15.471Z,14.10
2017-06-10T00:33:44.263Z,14.10
2017-06-10T00:36:13.232Z,14.20
2017-06-10T00:38:42.120Z,14.20
2017-06-10T00:41:10.863Z,14.30
2017-06-10T00:43:39.799Z,14.20
2017-06-10T00:46:08.587Z,14.20
2017-06-10T00:48:37.379Z,14.20
2017-06-10T00:51:06.171Z,14.20
2017-06-10T00:53:34.955Z,14.20
2017-06-10T00:56:03.742Z,14.00
2017-06-10T00:58:32.535Z,14.00
2017-06-10T01:01:01.315Z,13.90
2017-06-10T01:03:30.099Z,13.90
2017-06-10T01:05:58.915Z,13.90
2017-06-10T01:08:27.710Z,13.90
2017-06-10T01:10:56.559Z,13.90
2017-06-10T01:13:25.440Z,13.70
2017-06-10T01:15:56.147Z,13.60
2017-06-10T01:18:26.823Z,13.40
2017-06-10T01:20:56.795Z,13.40
2017-06-10T01:23:25.555Z,13.20
2017-06-10T01:25:54.371Z,13.30
2017-06-10T01:28:24.083Z,13.10
2017-06-10T01:30:52.932Z,12.90
2017-06-10T01:33:21.834Z,13.00
2017-06-10T01:35:50.607Z,13.00
2017-06-10T01:38:19.379Z,12.90
2017-06-10T01:40:48.291Z,12.90
2017-06-10T01:43:17.072Z,12.80
2017-06-10T01:45:45.834Z,12.80
2017-06-10T01:48:14.618Z,12.70
2017-06-10T01:50:43.394Z,12.70
2017-06-10T01:53:12.166Z,12.70
2017-06-10T01:55:40.982Z,12.60
2017-06-10T01:58:09.743Z,12.50
2017-06-10T02:00:38.519Z,12.40
2017-06-10T02:03:06.529Z,12.40
2017-06-10T02:05:35.291Z,12.50
2017-06-10T02:08:04.066Z,12.60
2017-06-10T02:10:32.070Z,12.60
2017-06-10T02:13:00.843Z,12.40
2017-06-10T02:15:29.630Z,12.50
2017-06-10T02:17:59.450Z,12.60
2017-06-10T02:20:28.222Z,12.40
2017-06-10T02:22:56.990Z,12.20
2017-06-10T02:25:25.885Z,12.10
2017-06-10T02:27:54.654Z,12.10
2017-06-10T02:30:23.425Z,12.20
2017-06-10T02:32:53.174Z,12.30
2017-06-10T02:35:21.946Z,12.30
2017-06-10T02:37:50.714Z,12.30
2017-06-10T02:40:19.485Z,12.40
2017-06-10T02:42:48.261Z,12.30
2017-06-10T02:45:17.021Z,12.00
2017-06-10T02:47:45.801Z,11.90
2017-06-10T02:50:14.586Z,11.70
2017-06-10T02:52:43.329Z,11.70
2017-06-10T02:55:12.110Z,11.70
2017-06-10T02:57:40.878Z,11.80
2017-06-10T03:00:09.645Z,11.80
2017-06-10T03:02:38.541Z,11.90
2017-06-10T03:05:07.309Z,11.90
2017-06-10T03:07:36.085Z,11.70
2017-06-10T03:10:04.857Z,11.60
2017-06-10T03:12:33.625Z,11.70
2017-06-10T03:15:02.397Z,11.70
2017-06-10T03:17:31.205Z,11.80
2017-06-10T03:19:59.969Z,11.90
2017-06-10T03:22:28.733Z,11.90
2017-06-10T03:24:57.517Z,11.90
2017-06-10T03:27:26.286Z,11.90
2017-06-10T03:29:54.293Z,11.90
2017-06-10T03:32:23.105Z,12.10
2017-06-10T03:34:51.881Z,11.90
2017-06-10T03:37:20.653Z,11.90
2017-06-10T03:39:49.470Z,11.90
2017-06-10T03:42:18.256Z,11.90
2017-06-10T03:44:47.025Z,11.90
2017-06-10T03:47:15.837Z,12.00
2017-06-10T03:49:44.613Z,12.00
2017-06-10T03:52:13.381Z,12.00
2017-06-10T03:54:42.169Z,11.90
2017-06-10T03:57:10.945Z,12.00
2017-06-10T03:59:39.729Z,12.10
2017-06-10T04:02:08.542Z,12.20
2017-06-10T04:04:37.325Z,12.20
2017-06-10T04:07:06.098Z,12.30
2017-06-10T04:09:34.917Z,12.20
2017-06-10T04:12:03.804Z,12.30
2017-06-10T04:14:32.589Z,12.30
2017-06-10T04:17:01.477Z,12.30
2017-06-10T04:19:31.193Z,12.20
2017-06-10T04:21:59.961Z,12.20
2017-06-10T04:24:28.869Z,12.10
2017-06-10T04:26:57.752Z,12.10
2017-06-10T04:29:26.641Z,12.00
2017-06-10T04:31:55.461Z,11.90
2017-06-10T04:34:24.243Z,12.00
2017-06-10T04:36:53.005Z,12.10
2017-06-10T04:39:21.908Z,12.10
2017-06-10T04:41:50.681Z,12.20
2017-06-10T04:44:19.453Z,12.20
2017-06-10T04:46:48.257Z,12.50
2017-06-10T04:49:17.029Z,12.60
2017-06-10T04:51:45.812Z,12.40
2017-06-10T04:54:14.609Z,12.40
2017-06-10T04:56:43.404Z,12.60
2017-06-10T04:59:12.305Z,12.60
2017-06-10T05:01:41.137Z,12.60
2017-06-10T05:04:09.917Z,12.60
2017-06-10T05:06:38.688Z,12.70
2017-06-10T05:09:07.472Z,12.60
2017-06-10T05:11:36.264Z,12.80
2017-06-10T05:14:05.044Z,12.80
2017-06-10T05:16:33.868Z,12.90
2017-06-10T05:19:02.648Z,12.90
2017-06-10T05:21:31.432Z,12.70
2017-06-10T05:24:00.352Z,12.80
2017-06-10T05:26:29.137Z,12.90
2017-06-10T05:28:57.936Z,12.90
2017-06-10T05:31:26.748Z,13.10
2017-06-10T05:33:55.528Z,13.20
2017-06-10T05:36:24.316Z,13.40
2017-06-10T05:38:53.120Z,13.20
2017-06-10T05:41:21.896Z,13.60
2017-06-10T05:43:50.676Z,13.50
2017-06-10T05:46:19.605Z,13.70
2017-06-10T05:48:48.361Z,14.00
2017-06-10T05:51:17.136Z,14.10
2017-06-10T05:53:46.032Z,14.00
2017-06-10T05:56:14.808Z,14.00
2017-06-10T05:58:43.596Z,14.10
2017-06-10T06:01:12.399Z,14.00
2017-06-10T06:03:41.180Z,14.10
2017-06-10T06:06:10.044Z,14.20
2017-06-10T06:08:38.840Z,14.20
2017-06-10T06:11:07.632Z,14.30
2017-06-10T06:13:36.417Z,14.40
2017-06-10T06:16:05.187Z,14.50
2017-06-10T06:18:34.015Z,14.40
2017-06-10T06:21:02.792Z,14.70
2017-06-10T06:23:31.788Z,14.80
2017-06-10T06:26:00.560Z,14.90
2017-06-10T06:28:29.335Z,15.00
2017-06-10T06:30:58.244Z,15.20
2017-06-10T06:33:27.019Z,15.40
2017-06-10T06:35:55.835Z,15.50
2017-06-10T06:38:24.739Z,15.50
2017-06-10T06:40:53.503Z,15.70
2017-06-10T06:43:22.272Z,15.80
2017-06-10T06:45:51.171Z,15.90
2017-06-10T06:48:19.955Z,16.00
2017-06-10T06:50:47.947Z,16.00
2017-06-10T06:53:17.703Z,16.10
2017-06-10T06:55:46.475Z,16.30
2017-06-10T06:58:15.251Z,16.20
2017-06-10T07:00:44.159Z,16.40
2017-06-10T07:03:12.931Z,16.50
2017-06-10T07:05:41.699Z,16.50
2017-06-10T07:08:10.599Z,16.50
2017-06-10T07:10:39.376Z,16.60
2017-06-10T07:13:08.147Z,16.60
2017-06-10T07:15:36.939Z,16.70
2017-06-10T07:18:05.715Z,16.90
2017-06-10T07:20:34.492Z,17.10
2017-06-10T07:23:03.287Z,17.20
2017-06-10T07:25:32.034Z,17.50
2017-06-10T07:28:00.799Z,17.60
2017-06-10T07:30:29.579Z,17.40
2017-06-10T07:32:58.355Z,17.00
2017-06-10T07:35:27.126Z,17.30
2017-06-10T07:37:56.027Z,17.50
2017-06-10T07:40:24.791Z,17.40
2017-06-10T07:42:53.558Z,17.50
2017-06-10T07:45:23.382Z,17.60
2017-06-10T07:47:52.155Z,17.60
2017-06-10T07:50:20.927Z,17.80
2017-06-10T07:52:49.827Z,17.90
2017-06-10T07:55:18.591Z,18.20
2017-06-10T07:57:47.350Z,18.40
2017-06-10T08:00:16.250Z,18.50
2017-06-10T08:02:45.014Z,18.30
2017-06-10T08:05:13.778Z,18.70
2017-06-10T08:07:42.578Z,18.90
2017-06-10T08:10:11.342Z,19.00
2017-06-10T08:12:40.106Z,19.00
2017-06-10T08:15:09.000Z,19.20
2017-06-10T08:17:37.758Z,19.20
2017-06-10T08:20:06.531Z,19.60
2017-06-10T08:22:35.426Z,19.40
2017-06-10T08:25:04.195Z,19.60
2017-06-10T08:27:32.194Z,19.60
2017-06-10T08:30:01.003Z,19.80
2017-06-10T08:32:29.734Z,19.90
2017-06-10T08:34:58.498Z,19.90
2017-06-10T08:37:27.390Z,19.80
2017-06-10T08:39:56.169Z,19.90
2017-06-10T08:42:24.931Z,19.80
2017-06-10T08:44:54.678Z,19.80
2017-06-10T08:47:23.498Z,20.10
2017-06-10T08:49:52.242Z,20.10
2017-06-10T08:52:21.014Z,20.10
2017-06-10T08:54:49.778Z,20.40
2017-06-10T08:57:18.547Z,20.30
2017-06-10T08:59:47.322Z,20.20
2017-06-10T09:02:16.093Z,20.10
2017-06-10T09:04:44.878Z,19.80
2017-06-10T09:07:13.682Z,19.50
2017-06-10T09:09:42.449Z,19.50
2017-06-10T09:12:11.225Z,19.60
2017-06-10T09:14:40.121Z,19.40
2017-06-10T09:17:08.883Z,19.80
2017-06-10T09:19:37.641Z,20.10
2017-06-10T09:22:06.422Z,20.30
2017-06-10T09:24:35.197Z,20.60
2017-06-10T09:27:03.961Z,20.80
2017-06-10T09:29:32.746Z,20.70
2017-06-10T09:32:01.505Z,20.80
2017-06-10T09:34:30.266Z,20.80
2017-06-10T09:36:59.161Z,20.50
2017-06-10T09:39:27.922Z,20.00
2017-06-10T09:41:56.685Z,19.90
2017-06-10T09:44:25.457Z,20.20
2017-06-10T09:46:54.250Z,20.20
2017-06-10T09:49:23.021Z,20.10
2017-06-10T09:51:51.828Z,20.10
2017-06-10T09:54:20.578Z,20.50
2017-06-10T09:56:49.358Z,20.40
2017-06-10T09:59:18.133Z,20.60
2017-06-10T10:01:46.917Z,20.60
2017-06-10T10:04:15.690Z,20.60
2017-06-10T10:06:44.476Z,20.50
2017-06-10T10:09:13.245Z,20.70
2017-06-10T10:11:42.013Z,21.10
2017-06-10T10:14:10.829Z,21.10
2017-06-10T10:16:39.597Z,20.90
2017-06-10T10:19:08.365Z,20.80
2017-06-10T10:21:37.141Z,20.60
2017-06-10T10:24:05.909Z,20.70
2017-06-10T10:26:34.676Z,20.80
2017-06-10T10:29:03.588Z,20.80
2017-06-10T10:31:32.353Z,20.90
2017-06-10T10:34:01.128Z,20.90
2017-06-10T10:36:29.921Z,21.20
2017-06-10T10:38:59.609Z,21.50
2017-06-10T10:41:28.372Z,21.50
2017-06-10T10:43:57.272Z,21.70
2017-06-10T10:46:26.040Z,21.80
2017-06-10T10:48:54.808Z,21.50
2017-06-10T10:51:23.596Z,21.60
2017-06-10T10:53:52.376Z,21.00
2017-06-10T10:56:22.148Z,21.70
2017-06-10T10:58:50.924Z,21.90
2017-06-10T11:01:19.708Z,22.00
2017-06-10T11:03:48.476Z,21.70
2017-06-10T11:06:17.372Z,21.80
2017-06-10T11:08:46.152Z,22.00
2017-06-10T11:11:14.920Z,22.20
2017-06-10T11:13:43.720Z,22.00
2017-06-10T11:16:13.480Z,21.90
2017-06-10T11:18:42.256Z,21.90
2017-06-10T11:21:11.036Z,22.20
2017-06-10T11:23:39.803Z,22.40
2017-06-10T11:26:08.579Z,22.40
2017-06-10T11:28:37.356Z,22.00
2017-06-10T11:31:06.140Z,22.40
2017-06-10T11:33:34.912Z,22.50
2017-06-10T11:36:03.696Z,22.60
2017-06-10T11:38:32.459Z,22.30
2017-06-10T11:41:01.223Z,22.20
2017-06-10T11:43:30.128Z,22.40
2017-06-10T11:45:58.907Z,22.40
2017-06-10T11:48:27.683Z,22.40
2017-06-10T11:50:56.459Z,22.50
2017-06-10T11:53:25.232Z,22.80
2017-06-10T11:55:54.007Z,22.90
2017-06-10T11:58:22.032Z,22.90
2017-06-10T12:00:50.808Z,22.20
2017-06-10T12:03:19.596Z,21.90
2017-06-10T12:05:48.376Z,22.30
2017-06-10T12:08:17.149Z,22.80
2017-06-10T12:10:45.919Z,23.10
2017-06-10T12:13:14.835Z,23.30
2017-06-10T12:15:43.607Z,23.30
2017-06-10T12:18:12.375Z,23.30
2017-06-10T12:20:40.428Z,23.30
2017-06-10T12:23:09.193Z,23.60
2017-06-10T12:25:37.964Z,23.40
2017-06-10T12:28:06.927Z,23.50
2017-06-10T12:30:35.711Z,23.30
2017-06-10T12:33:04.487Z,23.20
2017-06-10T12:35:33.275Z,23.30
2017-06-10T12:38:02.048Z,23.20
2017-06-10T12:40:30.818Z,23.00
2017-06-10T12:42:59.599Z,23.10
2017-06-10T12:45:28.374Z,22.90
2017-06-10T12:47:57.143Z,23.00
2017-06-10T12:50:25.915Z,23.20
2017-06-10T12:52:54.684Z,23.50
2017-06-10T12:55:23.450Z,22.80
2017-06-10T12:57:53.162Z,22.90
2017-06-10T13:00:22.855Z,22.80
2017-06-10T13:02:51.614Z,23.30
2017-06-10T13:05:20.386Z,23.50
2017-06-10T13:07:49.159Z,23.40
2017-06-10T13:10:17.919Z,23.40
2017-06-10T13:12:46.714Z,23.40
2017-06-10T13:15:15.475Z,23.30
2017-06-10T13:17:44.238Z,23.20
2017-06-10T13:20:13.130Z,23.10
2017-06-10T13:22:41.894Z,23.10
2017-06-10T13:25:10.658Z,23.10
2017-06-10T13:27:39.430Z,22.90
2017-06-10T13:30:08.199Z,22.90
2017-06-10T13:32:36.962Z,23.00
2017-06-10T13:35:05.734Z,23.10
2017-06-10T13:37:34.542Z,23.20
2017-06-10T13:40:03.302Z,23.40
2017-06-10T13:42:32.082Z,23.10
2017-06-10T13:45:02.766Z,23.20
2017-06-10T13:47:31.534Z,23.20
2017-06-10T13:50:00.425Z,23.30
2017-06-10T13:52:29.190Z,23.20
2017-06-10T13:54:57.950Z,23.30
2017-06-10T13:57:26.842Z,23.50
2017-06-10T13:59:55.602Z,23.80
2017-06-10T14:02:24.362Z,23.50
2017-06-10T14:04:53.130Z,23.80
2017-06-10T14:07:21.890Z,23.90
2017-06-10T14:09:50.654Z,24.00
2017-06-10T14:12:19.418Z,23.80
2017-06-10T14:14:48.186Z,23.70
2017-06-10T14:17:16.954Z,23.70
2017-06-10T14:19:46.722Z,23.90
2017-06-10T14:22:15.498Z,24.40
2017-06-10T14:24:44.262Z,24.40
2017-06-10T14:27:13.229Z,24.20
2017-06-10T14:29:41.949Z,24.10
2017-06-10T14:32:10.713Z,24.20
2017-06-10T14:34:39.490Z,24.20
2017-06-10T14:37:08.249Z,24.00
2017-06-10T14:39:37.014Z,24.40
2017-06-10T14:42:05.793Z,24.40
2017-06-10T14:44:34.560Z,24.40
2017-06-10T14:47:03.326Z,24.20
2017-06-10T14:49:32.098Z,24.00
2017-06-10T14:52:00.861Z,23.90
2017-06-10T14:54:29.622Z,23.60
2017-06-10T14:56:58.393Z,23.70
2017-06-10T14:59:27.158Z,23.80
2017-06-10T15:01:55.922Z,24.20
2017-06-10T15:04:24.697Z,24.30
2017-06-10T15:06:53.457Z,23.90
2017-06-10T15:09:22.217Z,23.80
2017-06-10T15:11:50.997Z,24.10
2017-06-10T15:14:19.761Z,24.10
2017-06-10T15:16:48.529Z,24.10
2017-06-10T15:19:17.294Z,24.30
2017-06-10T15:21:46.057Z,24.40
2017-06-10T15:24:14.817Z,24.50
2017-06-10T15:26:43.589Z,24.60
2017-06-10T15:29:12.354Z,24.40
2017-06-10T15:31:41.113Z,24.60
2017-06-10T15:34:09.885Z,24.40
2017-06-10T15:36:38.666Z,24.30
2017-06-10T15:39:07.421Z,24.50
2017-06-10T15:41:36.192Z,24.50
2017-06-10T15:44:04.965Z,24.30
2017-06-10T15:46:33.762Z,24.40
2017-06-10T15:49:02.537Z,24.50
2017-06-10T15:51:31.301Z,24.20
2017-06-10T15:54:00.064Z,24.30
2017-06-10T15:56:28.829Z,24.20
2017-06-10T15:58:57.597Z,24.00
2017-06-10T16:01:26.357Z,24.10
2017-06-10T16:03:55.125Z,24.20
2017-06-10T16:06:23.884Z,24.30
2017-06-10T16:08:52.645Z,24.10
2017-06-10T16:11:21.496Z,24.20
2017-06-10T16:13:50.257Z,24.10
2017-06-10T16:16:19.064Z,24.40
2017-06-10T16:18:47.820Z,24.30
2017-06-10T16:21:16.589Z,24.30
2017-06-10T16:23:45.353Z,24.50
2017-06-10T16:26:14.221Z,24.50
2017-06-10T16:28:43.013Z,24.40
2017-06-10T16:31:11.773Z,24.50
2017-06-10T16:33:40.592Z,24.40
2017-06-10T16:36:09.380Z,24.50
2017-06-10T16:38:38.921Z,24.30
2017-06-10T16:41:07.692Z,24.30
2017-06-10T16:43:36.456Z,24.20
2017-06-10T16:46:05.244Z,24.40
2017-06-10T16:48:34.020Z,24.30
2017-06-10T16:51:02.780Z,24.00
2017-06-10T16:53:31.544Z,24.00
2017-06-10T16:56:00.320Z,24.10
2017-06-10T16:58:29.084Z,24.10
2017-06-10T17:00:57.860Z,24.20
2017-06-10T17:03:26.640Z,24.10
2017-06-10T17:05:55.404Z,24.10
2017-06-10T17:08:24.176Z,24.10
2017-06-10T17:10:52.984Z,24.00
2017-06-10T17:13:21.748Z,24.00
2017-06-10T17:15:50.584Z,23.90
2017-06-10T17:18:19.320Z,23.90
2017-06-10T17:20:48.084Z,23.80
2017-06-10T17:23:16.079Z,23.80
2017-06-10T17:25:44.856Z,23.70
2017-06-10T17:28:13.627Z,23.70
2017-06-10T17:30:42.387Z,23.40
2017-06-10T17:33:11.168Z,23.20
2017-06-10T17:35:39.932Z,23.50
2017-06-10T17:38:08.699Z,23.60
2017-06-10T17:40:37.472Z,23.50
2017-06-10T17:43:06.239Z,23.50
2017-06-10T17:45:35.009Z,23.40
2017-06-10T17:48:03.784Z,23.40
2017-06-10T17:50:32.546Z,23.20
2017-06-10T17:53:01.307Z,23.20
2017-06-10T17:55:30.083Z,23.10
2017-06-10T17:57:58.859Z,23.20
2017-06-10T18:00:27.628Z,23.10
2017-06-10T18:02:56.403Z,23.20
2017-06-10T18:05:25.171Z,23.00
2017-06-10T18:07:53.943Z,22.90
2017-06-10T18:10:23.007Z,22.90
2017-06-10T18:12:51.771Z,22.80
2017-06-10T18:15:20.547Z,22.80
2017-06-10T18:17:48.563Z,22.80
2017-06-10T18:20:17.335Z,22.80
2017-06-10T18:22:46.106Z,22.50
2017-06-10T18:25:14.883Z,22.50
2017-06-10T18:27:42.959Z,22.50
2017-06-10T18:30:11.683Z,22.50
2017-06-10T18:32:40.458Z,22.50
2017-06-10T18:35:09.227Z,22.30
2017-06-10T18:37:38.000Z,22.30
2017-06-10T18:40:06.819Z,22.20
2017-06-10T18:42:35.671Z,22.10
2017-06-10T18:45:04.443Z,22.10
2017-06-10T18:47:33.222Z,22.00
2017-06-10T18:50:01.983Z,22.00
2017-06-10T18:52:30.747Z,21.80
2017-06-10T18:54:59.519Z,21.80
2017-06-10T18:57:28.291Z,21.70
2017-06-10T18:59:57.055Z,21.60
2017-06-10T19:02:25.946Z,21.50
2017-06-10T19:04:54.710Z,21.40
2017-06-10T19:07:23.479Z,21.40
2017-06-10T19:09:52.366Z,21.30
2017-06-10T19:12:21.134Z,21.10
2017-06-10T19:14:49.899Z,21.00
2017-06-10T19:17:18.682Z,20.90
2017-06-10T19:19:47.450Z,20.80
2017-06-10T19:22:16.243Z,20.80
2017-06-10T19:24:45.146Z,20.70
2017-06-10T19:27:13.914Z,20.70
2017-06-10T19:29:42.682Z,20.50
2017-06-10T19:32:11.586Z,20.40
2017-06-10T19:34:40.358Z,20.10
2017-06-10T19:37:09.122Z,19.90
2017-06-10T19:39:37.899Z,19.60
2017-06-10T19:42:06.666Z,19.50
2017-06-10T19:44:35.530Z,19.30
2017-06-10T19:47:04.414Z,19.00
2017-06-10T19:49:33.362Z,18.90
2017-06-10T19:52:02.122Z,19.10
2017-06-10T19:54:31.035Z,19.00
2017-06-10T19:56:59.810Z,18.70
2017-06-10T19:59:28.574Z,18.70
2017-06-10T20:01:57.482Z,18.30
2017-06-10T20:04:26.241Z,18.00
2017-06-10T20:06:55.006Z,18.20
2017-06-10T20:09:23.782Z,18.20
2017-06-10T20:11:52.577Z,18.00
2017-06-10T20:14:22.310Z,17.80
2017-06-10T20:16:51.086Z,17.40
2017-06-10T20:19:19.873Z,17.20
2017-06-10T20:21:48.646Z,17.20
2017-06-10T20:24:17.446Z,17.30
2017-06-10T20:26:47.198Z,17.10
2017-06-10T20:29:15.189Z,17.10
2017-06-10T20:31:43.977Z,17.00
2017-06-10T20:34:12.746Z,17.20
2017-06-10T20:36:41.514Z,17.30
2017-06-10T20:39:10.314Z,17.40
2017-06-10T20:41:39.108Z,17.30
2017-06-10T20:44:07.878Z,17.20
2017-06-10T20:46:36.774Z,17.50
2017-06-10T20:49:05.601Z,17.30
2017-06-10T20:51:34.391Z,17.50
2017-06-10T20:54:03.185Z,17.30
2017-06-10T20:56:32.005Z,16.90
2017-06-10T20:59:00.773Z,16.80
2017-06-10T21:01:29.674Z,16.80
2017-06-10T21:03:58.443Z,16.80
2017-06-10T21:06:27.210Z,17.00
2017-06-10T21:08:56.097Z,16.80
2017-06-10T21:11:24.837Z,16.60
2017-06-10T21:13:53.606Z,16.40
2017-06-10T21:16:22.577Z,16.00
2017-06-10T21:18:51.357Z,15.90
2017-06-10T21:21:20.128Z,15.70
2017-06-10T21:23:48.897Z,15.60
2017-06-10T21:26:17.661Z,15.50
2017-06-10T21:28:46.429Z,15.80
2017-06-10T21:31:15.205Z,15.80
2017-06-10T21:33:43.973Z,15.80
2017-06-10T21:36:12.749Z,15.80
2017-06-10T21:38:40.761Z,15.80
2017-06-10T21:41:09.534Z,15.80
2017-06-10T21:43:38.305Z,15.80
2017-06-10T21:46:07.093Z,15.90
2017-06-10T21:48:35.869Z,16.00
2017-06-10T21:51:04.641Z,16.00
2017-06-10T21:53:34.317Z,15.90
2017-06-10T21:56:03.113Z,15.90
2017-06-10T21:58:31.977Z,15.90
2017-06-10T22:01:01.437Z,16.00
2017-06-10T22:03:30.276Z,16.10
2017-06-10T22:05:59.925Z,16.00
2017-06-10T22:08:28.749Z,15.90
2017-06-10T22:10:57.512Z,15.90
2017-06-10T22:13:26.277Z,15.50
2017-06-10T22:15:55.064Z,15.50
2017-06-10T22:18:23.825Z,15.30
2017-06-10T22:20:52.589Z,15.10
2017-06-10T22:23:21.481Z,15.20
2017-06-10T22:25:50.285Z,15.20
2017-06-10T22:28:19.052Z,15.20
2017-06-10T22:30:48.062Z,15.30
2017-06-10T22:33:16.828Z,15.40
2017-06-10T22:35:45.624Z,15.30
2017-06-10T22:38:14.413Z,15.20
2017-06-10T22:40:44.174Z,15.10
2017-06-10T22:43:12.936Z,15.00
2017-06-10T22:45:41.844Z,14.70
2017-06-10T22:48:10.612Z,14.90
2017-06-10T22:50:39.384Z,15.00
2017-06-10T22:53:09.191Z,15.30
2017-06-10T22:55:37.988Z,15.30
2017-06-10T22:58:06.776Z,15.20
2017-06-10T23:00:35.780Z,15.30
2017-06-10T23:03:04.560Z,15.30
2017-06-10T23:05:33.327Z,15.20
2017-06-10T23:08:02.112Z,15.00
2017-06-10T23:10:30.884Z,14.50
2017-06-10T23:12:59.655Z,14.40
2017-06-10T23:15:28.464Z,14.10
2017-06-10T23:17:57.236Z,14.10
2017-06-10T23:20:26.007Z,14.10
2017-06-10T23:22:54.820Z,14.30
2017-06-10T23:25:23.615Z,14.00
2017-06-10T23:27:52.399Z,13.90
2017-06-10T23:30:21.411Z,13.80
2017-06-10T23:32:50.209Z,13.80
2017-06-10T23:35:18.992Z,13.70
2017-06-10T23:37:47.780Z,13.80
2017-06-10T23:40:17.052Z,14.00
2017-06-10T23:42:45.836Z,13.90
2017-06-10T23:45:14.648Z,14.00
2017-06-10T23:47:43.431Z,14.20
2017-06-10T23:50:12.967Z,14.20
2017-06-10T23:52:41.751Z,14.10
2017-06-10T23:55:10.523Z,13.90
2017-06-10T23:57:39.304Z,13.90
